sensor_id;sensor_type;location;lat;lon;timestamp;P1;durP1;ratioP1;P2;durP2;ratioP2
16870;SDS011;8552;48.120;-1.456;2022-08-19T00:01:25;6.10;;;4.10;;
16870;SDS011;8552;48.120;-1.456;2022-08-19T00:03:52;6.97;;;4.30;;
16870;SDS011;8552;48.120;-1.456;2022-08-19T00:06:18;7.57;;;4.40;;
16870;SDS011;8552;48.120;-1.456;2022-08-19T00:08:44;8.25;;;4.68;;
16870;SDS011;8552;48.120;-1.456;2022-08-19T00:11:10;4.57;;;4.00;;
16870;SDS011;8552;48.120;-1.456;2022-08-19T00:13:36;6.00;;;4.40;;
16870;SDS011;8552;48.120;-1.456;2022-08-19T00:16:03;6.18;;;3.80;;
16870;SDS011;8552;48.120;-1.456;2022-08-19T00:18:31;4.57;;;3.22;;
16870;SDS011;8552;48.120;-1.456;2022-08-19T00:20:58;3.47;;;3.03;;
16870;SDS011;8552;48.120;-1.456;2022-08-19T00:23:24;6.10;;;3.42;;
16870;SDS011;8552;48.120;-1.456;2022-08-19T00:25:50;3.92;;;3.03;;
16870;SDS011;8552;48.120;-1.456;2022-08-19T00:28:17;4.68;;;2.97;;
16870;SDS011;8552;48.120;-1.456;2022-08-19T00:30:43;5.25;;;3.10;;
16870;SDS011;8552;48.120;-1.456;2022-08-19T00:33:09;4.63;;;2.67;;
16870;SDS011;8552;48.120;-1.456;2022-08-19T00:35:35;3.25;;;2.95;;
16870;SDS011;8552;48.120;-1.456;2022-08-19T00:38:03;3.25;;;2.70;;
16870;SDS011;8552;48.120;-1.456;2022-08-19T00:40:30;5.57;;;2.30;;
16870;SDS011;8552;48.120;-1.456;2022-08-19T00:42:56;5.53;;;2.60;;
16870;SDS011;8552;48.120;-1.456;2022-08-19T00:45:24;3.75;;;2.70;;
16870;SDS011;8552;48.120;-1.456;2022-08-19T00:47:51;3.45;;;2.55;;
16870;SDS011;8552;48.120;-1.456;2022-08-19T00:50:18;4.97;;;2.42;;
16870;SDS011;8552;48.120;-1.456;2022-08-19T00:52:46;4.63;;;2.75;;
16870;SDS011;8552;48.120;-1.456;2022-08-19T00:55:21;2.90;;;2.60;;
16870;SDS011;8552;48.120;-1.456;2022-08-19T00:57:53;3.22;;;2.60;;
16870;SDS011;8552;48.120;-1.456;2022-08-19T01:00:23;2.67;;;2.38;;
16870;SDS011;8552;48.120;-1.456;2022-08-19T01:02:50;2.83;;;2.03;;
16870;SDS011;8552;48.120;-1.456;2022-08-19T01:05:20;2.67;;;1.80;;
16870;SDS011;8552;48.120;-1.456;2022-08-19T01:07:48;2.22;;;2.03;;
16870;SDS011;8552;48.120;-1.456;2022-08-19T01:10:16;3.67;;;2.75;;
16870;SDS011;8552;48.120;-1.456;2022-08-19T01:12:45;2.58;;;2.38;;
16870;SDS011;8552;48.120;-1.456;2022-08-19T01:15:13;3.13;;;2.15;;
16870;SDS011;8552;48.120;-1.456;2022-08-19T01:17:41;2.75;;;1.67;;
16870;SDS011;8552;48.120;-1.456;2022-08-19T01:20:12;2.33;;;2.13;;
16870;SDS011;8552;48.120;-1.456;2022-08-19T01:22:47;2.92;;;1.67;;
16870;SDS011;8552;48.120;-1.456;2022-08-19T01:25:19;2.08;;;1.50;;
16870;SDS011;8552;48.120;-1.456;2022-08-19T01:27:48;3.83;;;1.65;;
16870;SDS011;8552;48.120;-1.456;2022-08-19T01:30:16;3.35;;;1.50;;
16870;SDS011;8552;48.120;-1.456;2022-08-19T01:32:44;1.55;;;1.45;;
16870;SDS011;8552;48.120;-1.456;2022-08-19T01:35:11;1.70;;;1.60;;
16870;SDS011;8552;48.120;-1.456;2022-08-19T01:37:42;2.80;;;1.70;;
16870;SDS011;8552;48.120;-1.456;2022-08-19T01:40:09;1.67;;;1.42;;
16870;SDS011;8552;48.120;-1.456;2022-08-19T01:42:35;1.58;;;1.48;;
16870;SDS011;8552;48.120;-1.456;2022-08-19T01:45:02;1.65;;;1.55;;
16870;SDS011;8552;48.120;-1.456;2022-08-19T01:47:29;2.03;;;1.52;;
16870;SDS011;8552;48.120;-1.456;2022-08-19T01:49:54;3.20;;;1.67;;
16870;SDS011;8552;48.120;-1.456;2022-08-19T01:52:20;2.97;;;1.90;;
16870;SDS011;8552;48.120;-1.456;2022-08-19T01:54:46;2.55;;;1.58;;
16870;SDS011;8552;48.120;-1.456;2022-08-19T01:57:12;1.88;;;1.60;;
16870;SDS011;8552;48.120;-1.456;2022-08-19T01:59:40;3.03;;;1.52;;
16870;SDS011;8552;48.120;-1.456;2022-08-19T02:02:07;2.47;;;1.48;;
16870;SDS011;8552;48.120;-1.456;2022-08-19T02:04:33;2.08;;;1.38;;
16870;SDS011;8552;48.120;-1.456;2022-08-19T02:07:00;2.10;;;1.73;;
16870;SDS011;8552;48.120;-1.456;2022-08-19T02:09:26;5.68;;;1.65;;
16870;SDS011;8552;48.120;-1.456;2022-08-19T02:11:52;1.67;;;1.58;;
16870;SDS011;8552;48.120;-1.456;2022-08-19T02:14:18;4.13;;;1.40;;
16870;SDS011;8552;48.120;-1.456;2022-08-19T02:16:44;2.92;;;1.55;;
16870;SDS011;8552;48.120;-1.456;2022-08-19T02:19:09;4.00;;;1.60;;
16870;SDS011;8552;48.120;-1.456;2022-08-19T02:21:35;2.88;;;1.92;;
16870;SDS011;8552;48.120;-1.456;2022-08-19T02:24:01;2.92;;;1.67;;
16870;SDS011;8552;48.120;-1.456;2022-08-19T02:26:28;1.85;;;1.75;;
16870;SDS011;8552;48.120;-1.456;2022-08-19T02:28:54;3.78;;;1.73;;
16870;SDS011;8552;48.120;-1.456;2022-08-19T02:31:20;3.78;;;1.83;;
16870;SDS011;8552;48.120;-1.456;2022-08-19T02:33:48;2.97;;;1.70;;
16870;SDS011;8552;48.120;-1.456;2022-08-19T02:36:14;1.80;;;1.65;;
16870;SDS011;8552;48.120;-1.456;2022-08-19T02:38:41;1.48;;;1.38;;
16870;SDS011;8552;48.120;-1.456;2022-08-19T02:41:12;2.38;;;2.08;;
16870;SDS011;8552;48.120;-1.456;2022-08-19T02:43:40;2.15;;;1.80;;
16870;SDS011;8552;48.120;-1.456;2022-08-19T02:48:49;2.20;;;2.00;;
16870;SDS011;8552;48.120;-1.456;2022-08-19T02:51:19;2.58;;;1.48;;
16870;SDS011;8552;48.120;-1.456;2022-08-19T02:53:49;2.80;;;1.52;;
16870;SDS011;8552;48.120;-1.456;2022-08-19T02:56:15;2.83;;;1.90;;
16870;SDS011;8552;48.120;-1.456;2022-08-19T02:58:42;1.65;;;1.55;;
16870;SDS011;8552;48.120;-1.456;2022-08-19T03:01:08;3.25;;;2.28;;
16870;SDS011;8552;48.120;-1.456;2022-08-19T03:03:35;3.78;;;2.15;;
16870;SDS011;8552;48.120;-1.456;2022-08-19T03:06:12;4.07;;;1.83;;
16870;SDS011;8552;48.120;-1.456;2022-08-19T03:08:41;2.92;;;2.00;;
16870;SDS011;8552;48.120;-1.456;2022-08-19T03:11:51;2.50;;;1.70;;
16870;SDS011;8552;48.120;-1.456;2022-08-19T03:13:58;3.05;;;2.00;;
16870;SDS011;8552;48.120;-1.456;2022-08-19T03:16:26;4.00;;;2.40;;
16870;SDS011;8552;48.120;-1.456;2022-08-19T03:18:53;3.65;;;2.22;;
16870;SDS011;8552;48.120;-1.456;2022-08-19T03:21:22;2.85;;;2.17;;
16870;SDS011;8552;48.120;-1.456;2022-08-19T03:23:50;2.97;;;2.10;;
16870;SDS011;8552;48.120;-1.456;2022-08-19T03:26:19;2.80;;;2.33;;
16870;SDS011;8552;48.120;-1.456;2022-08-19T03:28:45;3.35;;;2.20;;
16870;SDS011;8552;48.120;-1.456;2022-08-19T03:31:15;4.32;;;1.92;;
16870;SDS011;8552;48.120;-1.456;2022-08-19T03:33:42;5.55;;;2.28;;
16870;SDS011;8552;48.120;-1.456;2022-08-19T03:36:09;2.20;;;1.70;;
16870;SDS011;8552;48.120;-1.456;2022-08-19T03:38:42;4.20;;;2.28;;
16870;SDS011;8552;48.120;-1.456;2022-08-19T03:41:11;3.72;;;1.75;;
16870;SDS011;8552;48.120;-1.456;2022-08-19T03:43:39;2.70;;;2.05;;
16870;SDS011;8552;48.120;-1.456;2022-08-19T03:46:07;2.35;;;2.10;;
16870;SDS011;8552;48.120;-1.456;2022-08-19T03:48:35;3.65;;;1.90;;
16870;SDS011;8552;48.120;-1.456;2022-08-19T03:51:03;1.90;;;1.75;;
16870;SDS011;8552;48.120;-1.456;2022-08-19T03:53:30;2.95;;;2.00;;
16870;SDS011;8552;48.120;-1.456;2022-08-19T03:55:57;2.45;;;1.70;;
16870;SDS011;8552;48.120;-1.456;2022-08-19T03:58:25;3.65;;;2.10;;
16870;SDS011;8552;48.120;-1.456;2022-08-19T04:00:53;5.18;;;2.00;;
16870;SDS011;8552;48.120;-1.456;2022-08-19T04:03:20;2.95;;;2.35;;
16870;SDS011;8552;48.120;-1.456;2022-08-19T04:05:46;2.67;;;2.20;;
16870;SDS011;8552;48.120;-1.456;2022-08-19T04:08:12;2.53;;;2.00;;
16870;SDS011;8552;48.120;-1.456;2022-08-19T04:10:40;2.83;;;2.22;;
16870;SDS011;8552;48.120;-1.456;2022-08-19T04:13:06;2.17;;;1.92;;
16870;SDS011;8552;48.120;-1.456;2022-08-19T04:15:33;4.68;;;1.85;;
16870;SDS011;8552;48.120;-1.456;2022-08-19T04:18:06;2.60;;;2.20;;
16870;SDS011;8552;48.120;-1.456;2022-08-19T04:20:38;3.65;;;2.45;;
16870;SDS011;8552;48.120;-1.456;2022-08-19T04:23:07;3.03;;;2.00;;
16870;SDS011;8552;48.120;-1.456;2022-08-19T04:25:40;2.90;;;1.50;;
16870;SDS011;8552;48.120;-1.456;2022-08-19T04:28:08;2.42;;;1.95;;
16870;SDS011;8552;48.120;-1.456;2022-08-19T04:30:41;2.20;;;2.00;;
16870;SDS011;8552;48.120;-1.456;2022-08-19T04:33:13;2.47;;;2.25;;
16870;SDS011;8552;48.120;-1.456;2022-08-19T04:35:42;2.28;;;2.08;;
16870;SDS011;8552;48.120;-1.456;2022-08-19T04:38:10;2.58;;;2.15;;
16870;SDS011;8552;48.120;-1.456;2022-08-19T04:40:43;3.13;;;2.17;;
16870;SDS011;8552;48.120;-1.456;2022-08-19T04:43:29;2.67;;;2.47;;
16870;SDS011;8552;48.120;-1.456;2022-08-19T04:45:55;2.33;;;2.10;;
16870;SDS011;8552;48.120;-1.456;2022-08-19T04:48:21;3.15;;;2.38;;
16870;SDS011;8552;48.120;-1.456;2022-08-19T04:50:54;2.55;;;2.22;;
16870;SDS011;8552;48.120;-1.456;2022-08-19T04:53:31;2.40;;;2.08;;
16870;SDS011;8552;48.120;-1.456;2022-08-19T04:55:59;3.33;;;2.67;;
16870;SDS011;8552;48.120;-1.456;2022-08-19T04:58:28;2.63;;;2.42;;
16870;SDS011;8552;48.120;-1.456;2022-08-19T05:00:54;2.75;;;2.35;;
16870;SDS011;8552;48.120;-1.456;2022-08-19T05:03:20;2.53;;;2.22;;
16870;SDS011;8552;48.120;-1.456;2022-08-19T05:05:47;2.70;;;2.20;;
16870;SDS011;8552;48.120;-1.456;2022-08-19T05:08:17;2.55;;;2.30;;
16870;SDS011;8552;48.120;-1.456;2022-08-19T05:10:49;2.38;;;2.17;;
16870;SDS011;8552;48.120;-1.456;2022-08-19T05:13:16;2.10;;;1.90;;
16870;SDS011;8552;48.120;-1.456;2022-08-19T05:15:43;3.92;;;2.33;;
16870;SDS011;8552;48.120;-1.456;2022-08-19T05:18:17;4.03;;;2.58;;
16870;SDS011;8552;48.120;-1.456;2022-08-19T05:21:05;2.92;;;1.90;;
16870;SDS011;8552;48.120;-1.456;2022-08-19T05:23:50;2.95;;;2.15;;
16870;SDS011;8552;48.120;-1.456;2022-08-19T05:26:16;2.88;;;2.30;;
16870;SDS011;8552;48.120;-1.456;2022-08-19T05:28:42;3.45;;;2.53;;
16870;SDS011;8552;48.120;-1.456;2022-08-19T05:31:07;5.63;;;3.05;;
16870;SDS011;8552;48.120;-1.456;2022-08-19T05:33:33;2.55;;;2.28;;
16870;SDS011;8552;48.120;-1.456;2022-08-19T05:35:59;2.90;;;2.28;;
16870;SDS011;8552;48.120;-1.456;2022-08-19T05:38:26;2.80;;;2.40;;
16870;SDS011;8552;48.120;-1.456;2022-08-19T05:40:55;4.40;;;2.00;;
16870;SDS011;8552;48.120;-1.456;2022-08-19T05:43:20;4.00;;;2.38;;
16870;SDS011;8552;48.120;-1.456;2022-08-19T05:45:46;5.25;;;2.92;;
16870;SDS011;8552;48.120;-1.456;2022-08-19T05:48:13;3.38;;;3.08;;
16870;SDS011;8552;48.120;-1.456;2022-08-19T05:50:40;3.20;;;2.28;;
16870;SDS011;8552;48.120;-1.456;2022-08-19T05:53:06;3.25;;;2.30;;
16870;SDS011;8552;48.120;-1.456;2022-08-19T05:55:34;3.20;;;2.55;;
16870;SDS011;8552;48.120;-1.456;2022-08-19T05:58:00;2.85;;;2.20;;
16870;SDS011;8552;48.120;-1.456;2022-08-19T06:00:26;3.55;;;2.75;;
16870;SDS011;8552;48.120;-1.456;2022-08-19T06:02:52;2.67;;;2.20;;
16870;SDS011;8552;48.120;-1.456;2022-08-19T06:05:19;3.45;;;2.85;;
16870;SDS011;8552;48.120;-1.456;2022-08-19T06:07:45;4.13;;;3.00;;
16870;SDS011;8552;48.120;-1.456;2022-08-19T06:10:10;4.05;;;2.70;;
16870;SDS011;8552;48.120;-1.456;2022-08-19T06:12:38;3.28;;;2.58;;
16870;SDS011;8552;48.120;-1.456;2022-08-19T06:15:05;3.10;;;2.80;;
16870;SDS011;8552;48.120;-1.456;2022-08-19T06:17:34;4.18;;;2.78;;
16870;SDS011;8552;48.120;-1.456;2022-08-19T06:20:01;4.20;;;2.35;;
16870;SDS011;8552;48.120;-1.456;2022-08-19T06:22:31;3.58;;;2.35;;
16870;SDS011;8552;48.120;-1.456;2022-08-19T06:25:06;3.25;;;2.63;;
16870;SDS011;8552;48.120;-1.456;2022-08-19T06:27:34;3.95;;;2.97;;
16870;SDS011;8552;48.120;-1.456;2022-08-19T06:30:00;3.50;;;2.70;;
16870;SDS011;8552;48.120;-1.456;2022-08-19T06:32:27;2.60;;;2.40;;
16870;SDS011;8552;48.120;-1.456;2022-08-19T06:34:53;4.05;;;3.10;;
16870;SDS011;8552;48.120;-1.456;2022-08-19T06:37:19;3.78;;;2.80;;
16870;SDS011;8552;48.120;-1.456;2022-08-19T06:39:46;3.83;;;2.92;;
16870;SDS011;8552;48.120;-1.456;2022-08-19T06:42:13;4.53;;;3.10;;
16870;SDS011;8552;48.120;-1.456;2022-08-19T06:44:41;4.95;;;3.05;;
16870;SDS011;8552;48.120;-1.456;2022-08-19T06:47:10;4.65;;;3.00;;
16870;SDS011;8552;48.120;-1.456;2022-08-19T06:49:41;4.43;;;3.30;;
16870;SDS011;8552;48.120;-1.456;2022-08-19T06:52:07;4.97;;;3.33;;
16870;SDS011;8552;48.120;-1.456;2022-08-19T06:54:36;3.45;;;3.05;;
16870;SDS011;8552;48.120;-1.456;2022-08-19T06:57:03;4.55;;;3.47;;
16870;SDS011;8552;48.120;-1.456;2022-08-19T06:59:29;4.28;;;3.08;;
16870;SDS011;8552;48.120;-1.456;2022-08-19T07:01:57;4.97;;;3.28;;
16870;SDS011;8552;48.120;-1.456;2022-08-19T07:04:25;4.05;;;2.75;;
16870;SDS011;8552;48.120;-1.456;2022-08-19T07:07:00;5.93;;;3.53;;
16870;SDS011;8552;48.120;-1.456;2022-08-19T07:09:31;5.10;;;3.42;;
16870;SDS011;8552;48.120;-1.456;2022-08-19T07:11:57;4.47;;;3.17;;
16870;SDS011;8552;48.120;-1.456;2022-08-19T07:14:24;4.32;;;3.47;;
16870;SDS011;8552;48.120;-1.456;2022-08-19T07:16:53;6.60;;;3.20;;
16870;SDS011;8552;48.120;-1.456;2022-08-19T07:19:20;3.65;;;3.35;;
16870;SDS011;8552;48.120;-1.456;2022-08-19T07:21:47;5.75;;;3.03;;
16870;SDS011;8552;48.120;-1.456;2022-08-19T07:24:15;6.70;;;3.53;;
16870;SDS011;8552;48.120;-1.456;2022-08-19T07:26:42;4.25;;;3.33;;
16870;SDS011;8552;48.120;-1.456;2022-08-19T07:29:09;5.45;;;3.45;;
16870;SDS011;8552;48.120;-1.456;2022-08-19T07:31:35;4.43;;;2.97;;
16870;SDS011;8552;48.120;-1.456;2022-08-19T07:34:02;4.85;;;2.97;;
16870;SDS011;8552;48.120;-1.456;2022-08-19T07:36:34;3.55;;;2.92;;
16870;SDS011;8552;48.120;-1.456;2022-08-19T07:39:08;3.55;;;2.75;;
16870;SDS011;8552;48.120;-1.456;2022-08-19T07:41:38;3.08;;;2.78;;
16870;SDS011;8552;48.120;-1.456;2022-08-19T07:44:04;3.30;;;2.95;;
16870;SDS011;8552;48.120;-1.456;2022-08-19T07:46:32;6.60;;;2.53;;
16870;SDS011;8552;48.120;-1.456;2022-08-19T07:49:06;4.85;;;2.83;;
16870;SDS011;8552;48.120;-1.456;2022-08-19T07:51:32;4.25;;;3.17;;
16870;SDS011;8552;48.120;-1.456;2022-08-19T07:53:59;4.38;;;2.75;;
16870;SDS011;8552;48.120;-1.456;2022-08-19T07:56:25;6.20;;;2.95;;
16870;SDS011;8552;48.120;-1.456;2022-08-19T07:58:51;4.82;;;2.50;;
16870;SDS011;8552;48.120;-1.456;2022-08-19T08:01:19;5.22;;;3.53;;
16870;SDS011;8552;48.120;-1.456;2022-08-19T08:03:48;4.43;;;2.83;;
16870;SDS011;8552;48.120;-1.456;2022-08-19T08:06:34;4.05;;;2.90;;
16870;SDS011;8552;48.120;-1.456;2022-08-19T08:09:21;5.40;;;2.63;;
16870;SDS011;8552;48.120;-1.456;2022-08-19T08:11:54;3.65;;;3.00;;
16870;SDS011;8552;48.120;-1.456;2022-08-19T08:14:27;6.57;;;3.25;;
16870;SDS011;8552;48.120;-1.456;2022-08-19T08:17:02;3.25;;;2.40;;
16870;SDS011;8552;48.120;-1.456;2022-08-19T08:19:29;4.72;;;2.97;;
16870;SDS011;8552;48.120;-1.456;2022-08-19T08:21:57;3.60;;;2.67;;
16870;SDS011;8552;48.120;-1.456;2022-08-19T08:24:24;5.22;;;2.83;;
16870;SDS011;8552;48.120;-1.456;2022-08-19T08:26:51;4.47;;;2.50;;
16870;SDS011;8552;48.120;-1.456;2022-08-19T08:29:17;5.32;;;2.95;;
16870;SDS011;8552;48.120;-1.456;2022-08-19T08:31:45;3.75;;;2.70;;
16870;SDS011;8552;48.120;-1.456;2022-08-19T08:34:12;5.10;;;2.58;;
16870;SDS011;8552;48.120;-1.456;2022-08-19T08:36:39;3.58;;;2.40;;
16870;SDS011;8552;48.120;-1.456;2022-08-19T08:39:08;4.28;;;2.67;;
16870;SDS011;8552;48.120;-1.456;2022-08-19T08:41:37;5.90;;;2.78;;
16870;SDS011;8552;48.120;-1.456;2022-08-19T08:44:20;3.72;;;2.47;;
16870;SDS011;8552;48.120;-1.456;2022-08-19T08:47:09;4.22;;;2.35;;
16870;SDS011;8552;48.120;-1.456;2022-08-19T08:52:19;3.42;;;2.20;;
16870;SDS011;8552;48.120;-1.456;2022-08-19T08:54:53;4.43;;;2.58;;
16870;SDS011;8552;48.120;-1.456;2022-08-19T09:00:06;3.58;;;2.00;;
16870;SDS011;8552;48.120;-1.456;2022-08-19T09:02:35;3.40;;;2.15;;
16870;SDS011;8552;48.120;-1.456;2022-08-19T09:05:01;4.95;;;2.35;;
16870;SDS011;8552;48.120;-1.456;2022-08-19T09:13:01;4.63;;;2.50;;
16870;SDS011;8552;48.120;-1.456;2022-08-19T09:15:38;2.47;;;1.92;;
16870;SDS011;8552;48.120;-1.456;2022-08-19T09:18:14;2.90;;;2.10;;
16870;SDS011;8552;48.120;-1.456;2022-08-19T09:20:41;4.25;;;1.80;;
16870;SDS011;8552;48.120;-1.456;2022-08-19T09:23:07;4.80;;;2.17;;
16870;SDS011;8552;48.120;-1.456;2022-08-19T09:25:34;4.25;;;2.22;;
16870;SDS011;8552;48.120;-1.456;2022-08-19T09:28:00;4.40;;;2.33;;
16870;SDS011;8552;48.120;-1.456;2022-08-19T09:30:38;3.45;;;2.30;;
16870;SDS011;8552;48.120;-1.456;2022-08-19T09:33:06;4.85;;;2.08;;
16870;SDS011;8552;48.120;-1.456;2022-08-19T09:35:32;3.67;;;2.10;;
16870;SDS011;8552;48.120;-1.456;2022-08-19T09:37:58;2.85;;;1.58;;
16870;SDS011;8552;48.120;-1.456;2022-08-19T09:40:24;2.90;;;2.10;;
16870;SDS011;8552;48.120;-1.456;2022-08-19T09:42:51;5.85;;;2.20;;
16870;SDS011;8552;48.120;-1.456;2022-08-19T09:45:18;3.95;;;1.70;;
16870;SDS011;8552;48.120;-1.456;2022-08-19T09:47:46;4.78;;;1.88;;
16870;SDS011;8552;48.120;-1.456;2022-08-19T09:50:12;4.75;;;1.80;;
16870;SDS011;8552;48.120;-1.456;2022-08-19T09:52:39;4.60;;;1.90;;
16870;SDS011;8552;48.120;-1.456;2022-08-19T09:55:07;3.35;;;2.13;;
16870;SDS011;8552;48.120;-1.456;2022-08-19T09:57:35;4.18;;;1.85;;
16870;SDS011;8552;48.120;-1.456;2022-08-19T10:00:01;3.22;;;1.92;;
16870;SDS011;8552;48.120;-1.456;2022-08-19T10:02:28;3.90;;;1.92;;
16870;SDS011;8552;48.120;-1.456;2022-08-19T10:04:54;3.50;;;1.77;;
16870;SDS011;8552;48.120;-1.456;2022-08-19T10:07:38;3.08;;;1.85;;
16870;SDS011;8552;48.120;-1.456;2022-08-19T10:10:04;2.53;;;1.38;;
16870;SDS011;8552;48.120;-1.456;2022-08-19T10:12:31;6.10;;;1.67;;
16870;SDS011;8552;48.120;-1.456;2022-08-19T10:14:58;2.15;;;1.65;;
16870;SDS011;8552;48.120;-1.456;2022-08-19T10:17:24;5.30;;;2.03;;
16870;SDS011;8552;48.120;-1.456;2022-08-19T10:19:50;3.13;;;1.88;;
16870;SDS011;8552;48.120;-1.456;2022-08-19T10:22:17;2.53;;;1.48;;
16870;SDS011;8552;48.120;-1.456;2022-08-19T10:24:44;2.45;;;1.67;;
16870;SDS011;8552;48.120;-1.456;2022-08-19T10:27:12;2.67;;;1.73;;
16870;SDS011;8552;48.120;-1.456;2022-08-19T10:29:39;2.83;;;1.60;;
16870;SDS011;8552;48.120;-1.456;2022-08-19T10:32:06;3.47;;;1.80;;
16870;SDS011;8552;48.120;-1.456;2022-08-19T10:34:34;2.10;;;1.50;;
16870;SDS011;8552;48.120;-1.456;2022-08-19T10:37:02;2.63;;;1.23;;
16870;SDS011;8552;48.120;-1.456;2022-08-19T10:39:30;4.35;;;1.70;;
16870;SDS011;8552;48.120;-1.456;2022-08-19T10:41:58;2.25;;;1.70;;
16870;SDS011;8552;48.120;-1.456;2022-08-19T10:44:24;1.65;;;1.50;;
16870;SDS011;8552;48.120;-1.456;2022-08-19T10:46:50;1.35;;;1.25;;
16870;SDS011;8552;48.120;-1.456;2022-08-19T10:49:17;2.25;;;1.30;;
16870;SDS011;8552;48.120;-1.456;2022-08-19T10:51:44;2.38;;;0.90;;
16870;SDS011;8552;48.120;-1.456;2022-08-19T10:54:29;1.98;;;0.80;;
16870;SDS011;8552;48.120;-1.456;2022-08-19T10:57:13;1.35;;;0.90;;
16870;SDS011;8552;48.120;-1.456;2022-08-19T10:59:40;2.22;;;0.90;;
16870;SDS011;8552;48.120;-1.456;2022-08-19T11:02:07;1.05;;;0.68;;
16870;SDS011;8552;48.120;-1.456;2022-08-19T11:04:35;3.58;;;1.00;;
16870;SDS011;8552;48.120;-1.456;2022-08-19T11:07:02;2.90;;;1.20;;
16870;SDS011;8552;48.120;-1.456;2022-08-19T11:09:29;1.00;;;0.90;;
16870;SDS011;8552;48.120;-1.456;2022-08-19T11:11:55;2.28;;;0.80;;
16870;SDS011;8552;48.120;-1.456;2022-08-19T11:14:22;1.60;;;0.73;;
16870;SDS011;8552;48.120;-1.456;2022-08-19T11:16:50;1.83;;;0.80;;
16870;SDS011;8552;48.120;-1.456;2022-08-19T11:19:21;1.92;;;0.93;;
16870;SDS011;8552;48.120;-1.456;2022-08-19T11:21:49;3.95;;;1.10;;
16870;SDS011;8552;48.120;-1.456;2022-08-19T11:24:16;2.85;;;1.00;;
16870;SDS011;8552;48.120;-1.456;2022-08-19T11:26:45;3.05;;;1.13;;
16870;SDS011;8552;48.120;-1.456;2022-08-19T11:29:13;1.10;;;0.88;;
16870;SDS011;8552;48.120;-1.456;2022-08-19T11:31:40;1.48;;;0.98;;
16870;SDS011;8552;48.120;-1.456;2022-08-19T11:34:08;1.63;;;0.70;;
16870;SDS011;8552;48.120;-1.456;2022-08-19T11:36:37;1.33;;;0.90;;
16870;SDS011;8552;48.120;-1.456;2022-08-19T11:39:04;1.50;;;0.70;;
16870;SDS011;8552;48.120;-1.456;2022-08-19T11:41:31;1.20;;;0.73;;
16870;SDS011;8552;48.120;-1.456;2022-08-19T11:43:57;3.40;;;0.70;;
16870;SDS011;8552;48.120;-1.456;2022-08-19T11:46:23;1.25;;;1.00;;
16870;SDS011;8552;48.120;-1.456;2022-08-19T11:48:54;0.98;;;0.90;;
16870;SDS011;8552;48.120;-1.456;2022-08-19T11:51:22;1.55;;;0.95;;
16870;SDS011;8552;48.120;-1.456;2022-08-19T11:53:49;0.63;;;0.63;;
16870;SDS011;8552;48.120;-1.456;2022-08-19T11:56:16;1.95;;;0.90;;
16870;SDS011;8552;48.120;-1.456;2022-08-19T11:58:43;2.35;;;0.90;;
16870;SDS011;8552;48.120;-1.456;2022-08-19T12:01:10;1.08;;;0.85;;
16870;SDS011;8552;48.120;-1.456;2022-08-19T12:03:38;1.88;;;0.80;;
16870;SDS011;8552;48.120;-1.456;2022-08-19T12:06:05;1.13;;;0.90;;
16870;SDS011;8552;48.120;-1.456;2022-08-19T12:08:32;2.20;;;1.20;;
16870;SDS011;8552;48.120;-1.456;2022-08-19T12:10:58;1.90;;;1.02;;
16870;SDS011;8552;48.120;-1.456;2022-08-19T12:13:26;1.52;;;0.90;;
16870;SDS011;8552;48.120;-1.456;2022-08-19T12:15:53;1.60;;;1.05;;
16870;SDS011;8552;48.120;-1.456;2022-08-19T12:18:19;4.57;;;0.80;;
16870;SDS011;8552;48.120;-1.456;2022-08-19T12:20:45;0.60;;;0.50;;
16870;SDS011;8552;48.120;-1.456;2022-08-19T12:23:11;3.22;;;1.00;;
16870;SDS011;8552;48.120;-1.456;2022-08-19T12:25:42;0.85;;;0.50;;
16870;SDS011;8552;48.120;-1.456;2022-08-19T12:28:14;4.05;;;0.90;;
16870;SDS011;8552;48.120;-1.456;2022-08-19T12:30:41;1.23;;;0.55;;
16870;SDS011;8552;48.120;-1.456;2022-08-19T12:33:07;4.72;;;0.75;;
16870;SDS011;8552;48.120;-1.456;2022-08-19T12:35:33;1.35;;;0.57;;
16870;SDS011;8552;48.120;-1.456;2022-08-19T12:37:58;0.93;;;0.55;;
16870;SDS011;8552;48.120;-1.456;2022-08-19T12:40:25;2.30;;;0.60;;
16870;SDS011;8552;48.120;-1.456;2022-08-19T12:42:51;2.92;;;0.90;;
16870;SDS011;8552;48.120;-1.456;2022-08-19T12:45:17;2.38;;;0.60;;
16870;SDS011;8552;48.120;-1.456;2022-08-19T12:47:44;1.98;;;0.73;;
16870;SDS011;8552;48.120;-1.456;2022-08-19T12:50:11;1.35;;;0.65;;
16870;SDS011;8552;48.120;-1.456;2022-08-19T12:52:37;2.33;;;0.55;;
16870;SDS011;8552;48.120;-1.456;2022-08-19T12:55:03;1.58;;;0.50;;
16870;SDS011;8552;48.120;-1.456;2022-08-19T12:57:31;2.22;;;1.05;;
16870;SDS011;8552;48.120;-1.456;2022-08-19T12:59:59;1.75;;;0.70;;
16870;SDS011;8552;48.120;-1.456;2022-08-19T13:02:38;1.02;;;0.63;;
16870;SDS011;8552;48.120;-1.456;2022-08-19T13:05:06;1.48;;;0.93;;
16870;SDS011;8552;48.120;-1.456;2022-08-19T13:07:35;1.75;;;0.60;;
16870;SDS011;8552;48.120;-1.456;2022-08-19T13:10:03;2.35;;;1.05;;
16870;SDS011;8552;48.120;-1.456;2022-08-19T13:12:30;1.15;;;0.70;;
16870;SDS011;8552;48.120;-1.456;2022-08-19T13:14:56;2.80;;;0.77;;
16870;SDS011;8552;48.120;-1.456;2022-08-19T13:17:21;2.88;;;0.90;;
16870;SDS011;8552;48.120;-1.456;2022-08-19T13:19:48;2.60;;;1.05;;
16870;SDS011;8552;48.120;-1.456;2022-08-19T13:22:15;1.73;;;0.77;;
16870;SDS011;8552;48.120;-1.456;2022-08-19T13:24:41;3.17;;;1.05;;
16870;SDS011;8552;48.120;-1.456;2022-08-19T13:27:07;1.33;;;0.70;;
16870;SDS011;8552;48.120;-1.456;2022-08-19T13:29:33;1.33;;;0.80;;
16870;SDS011;8552;48.120;-1.456;2022-08-19T13:32:17;1.73;;;0.98;;
16870;SDS011;8552;48.120;-1.456;2022-08-19T13:35:01;1.88;;;0.70;;
16870;SDS011;8552;48.120;-1.456;2022-08-19T13:37:28;2.25;;;0.90;;
16870;SDS011;8552;48.120;-1.456;2022-08-19T13:40:07;1.33;;;0.80;;
16870;SDS011;8552;48.120;-1.456;2022-08-19T13:42:41;2.28;;;0.70;;
16870;SDS011;8552;48.120;-1.456;2022-08-19T13:45:08;1.95;;;0.70;;
16870;SDS011;8552;48.120;-1.456;2022-08-19T13:47:35;2.58;;;0.98;;
16870;SDS011;8552;48.120;-1.456;2022-08-19T13:50:12;0.68;;;0.40;;
16870;SDS011;8552;48.120;-1.456;2022-08-19T13:52:39;1.95;;;1.00;;
16870;SDS011;8552;48.120;-1.456;2022-08-19T13:55:06;1.75;;;1.02;;
16870;SDS011;8552;48.120;-1.456;2022-08-19T13:57:33;1.25;;;0.90;;
16870;SDS011;8552;48.120;-1.456;2022-08-19T13:59:59;4.30;;;0.82;;
16870;SDS011;8552;48.120;-1.456;2022-08-19T14:02:25;0.93;;;0.50;;
16870;SDS011;8552;48.120;-1.456;2022-08-19T14:04:51;2.67;;;1.02;;
16870;SDS011;8552;48.120;-1.456;2022-08-19T14:07:17;0.98;;;0.75;;
16870;SDS011;8552;48.120;-1.456;2022-08-19T14:09:43;1.20;;;0.65;;
16870;SDS011;8552;48.120;-1.456;2022-08-19T14:12:09;0.10;;;0.10;;
16870;SDS011;8552;48.120;-1.456;2022-08-19T14:14:38;2.83;;;0.10;;
16870;SDS011;8552;48.120;-1.456;2022-08-19T14:17:07;2.28;;;0.08;;
16870;SDS011;8552;48.120;-1.456;2022-08-19T14:19:34;2.10;;;0.32;;
16870;SDS011;8552;48.120;-1.456;2022-08-19T14:22:00;1.90;;;0.10;;
16870;SDS011;8552;48.120;-1.456;2022-08-19T14:24:26;0.85;;;0.10;;
16870;SDS011;8552;48.120;-1.456;2022-08-19T14:26:52;0.98;;;0.03;;
16870;SDS011;8552;48.120;-1.456;2022-08-19T14:29:18;0.13;;;0.10;;
16870;SDS011;8552;48.120;-1.456;2022-08-19T14:31:44;0.00;;;0.00;;
16870;SDS011;8552;48.120;-1.456;2022-08-19T14:34:10;0.17;;;0.00;;
16870;SDS011;8552;48.120;-1.456;2022-08-19T14:36:37;0.20;;;0.10;;
16870;SDS011;8552;48.120;-1.456;2022-08-19T14:39:03;1.33;;;0.10;;
16870;SDS011;8552;48.120;-1.456;2022-08-19T14:41:30;0.77;;;0.20;;
16870;SDS011;8552;48.120;-1.456;2022-08-19T14:43:56;0.10;;;0.10;;
16870;SDS011;8552;48.120;-1.456;2022-08-19T14:46:24;1.05;;;0.05;;
16870;SDS011;8552;48.120;-1.456;2022-08-19T14:48:53;1.63;;;0.30;;
16870;SDS011;8552;48.120;-1.456;2022-08-19T14:51:20;0.68;;;0.10;;
16870;SDS011;8552;48.120;-1.456;2022-08-19T14:53:47;0.10;;;0.10;;
16870;SDS011;8552;48.120;-1.456;2022-08-19T14:56:16;0.38;;;0.08;;
16870;SDS011;8552;48.120;-1.456;2022-08-19T14:58:44;0.65;;;0.20;;
16870;SDS011;8552;48.120;-1.456;2022-08-19T15:01:10;0.20;;;0.17;;
16870;SDS011;8552;48.120;-1.456;2022-08-19T15:03:38;0.20;;;0.20;;
16870;SDS011;8552;48.120;-1.456;2022-08-19T15:06:05;0.28;;;0.10;;
16870;SDS011;8552;48.120;-1.456;2022-08-19T15:08:32;0.10;;;0.10;;